Time;durP1;ratioP1;P1;durP2;ratioP2;P2;SDS_P1;SDS_P2;PMS_P1;PMS_P2;Temp;Humidity;BMP_temperature;BMP_pressure;BME280_temperature;BME280_humidity;BME280_pressure;Samples;Min_cycle;Max_cycle;Signal;HPM_P1;HPM_P2
2021/10/17 00:03:11;;;;;;;6.82;3.05;;;;;;;;;;10269631;28;20086;-57
2021/10/17 00:08:13;;;;;;;8.18;3.20;;;;;;;;;;10268415;28;20094;-56
2021/10/17 00:13:15;;;;;;;6.80;3.33;;;;;;;;;;10268434;28;20066;-56
2021/10/17 00:18:18;;;;;;;10.60;3.65;;;;;;;;;;10268758;28;20051;-56
2021/10/17 00:23:20;;;;;;;11.43;3.60;;;;;;;;;;10269426;28;20110;-56
2021/10/17 00:28:22;;;;;;;12.75;3.92;;;;;;;;;;10270192;28;20054;-56
2021/10/17 00:33:24;;;;;;;12.38;3.55;;;;;;;;;;10266567;28;20054;-57
2021/10/17 00:38:27;;;;;;;11.57;4.13;;;;;;;;;;10269017;28;20456;-56
2021/10/17 00:43:29;;;;;;;12.05;4.10;;;;;;;;;;10269247;28;20043;-56
2021/10/17 00:48:31;;;;;;;12.20;4.90;;;;;;;;;;10268858;28;20195;-56
2021/10/17 00:53:33;;;;;;;8.23;3.80;;;;;;;;;;10270155;28;20125;-55
2021/10/17 00:58:35;;;;;;;12.07;3.85;;;;;;;;;;10269169;28;20051;-56
2021/10/17 01:03:37;;;;;;;10.10;4.03;;;;;;;;;;10265699;28;20122;-55
2021/10/17 01:08:40;;;;;;;12.13;4.00;;;;;;;;;;10267493;28;20101;-56
2021/10/17 01:13:43;;;;;;;6.28;3.10;;;;;;;;;;10266721;28;20050;-56
2021/10/17 01:18:45;;;;;;;9.60;3.75;;;;;;;;;;10247963;28;20141;-55
2021/10/17 01:23:47;;;;;;;7.60;4.25;;;;;;;;;;10266944;28;20054;-56
2021/10/17 01:28:49;;;;;;;8.40;3.85;;;;;;;;;;10267018;28;20121;-56
2021/10/17 01:33:51;;;;;;;8.13;4.25;;;;;;;;;;10265141;28;20075;-56
2021/10/17 01:38:53;;;;;;;10.20;4.03;;;;;;;;;;10261996;28;20074;-55
2021/10/17 01:44:01;;;;;;;6.43;3.22;;;;;;;;;;10262006;28;20104;-56
2021/10/17 01:49:05;;;;;;;14.35;4.57;;;;;;;;;;10263974;28;20501;-55
2021/10/17 01:54:07;;;;;;;10.30;3.60;;;;;;;;;;10248839;28;20101;-56
2021/10/17 01:59:09;;;;;;;13.15;4.05;;;;;;;;;;10262659;28;20215;-56
2021/10/17 02:04:11;;;;;;;11.48;3.63;;;;;;;;;;10264511;28;20573;-56
2021/10/17 02:09:13;;;;;;;10.93;3.80;;;;;;;;;;10265975;28;20050;-56
2021/10/17 02:14:15;;;;;;;11.98;3.63;;;;;;;;;;10262968;28;20059;-56
2021/10/17 02:19:17;;;;;;;9.43;4.13;;;;;;;;;;10265005;28;20130;-56
2021/10/17 02:24:19;;;;;;;7.65;2.85;;;;;;;;;;10263903;28;20054;-55
2021/10/17 02:29:21;;;;;;;6.63;3.50;;;;;;;;;;10266875;28;20062;-55
2021/10/17 02:34:23;;;;;;;10.90;4.00;;;;;;;;;;10265169;28;20059;-56
2021/10/17 02:39:25;;;;;;;7.07;2.88;;;;;;;;;;10264144;28;20078;-56
2021/10/17 02:44:27;;;;;;;6.68;2.75;;;;;;;;;;10264241;28;20125;-56
2021/10/17 02:49:30;;;;;;;8.05;2.60;;;;;;;;;;10262436;28;20074;-56
2021/10/17 02:54:32;;;;;;;8.73;2.92;;;;;;;;;;10263953;28;20058;-56
2021/10/17 02:59:34;;;;;;;9.18;2.75;;;;;;;;;;10266284;28;20430;-56
2021/10/17 03:04:36;;;;;;;7.47;2.90;;;;;;;;;;10261287;28;20087;-55
2021/10/17 03:09:38;;;;;;;7.32;2.70;;;;;;;;;;10263152;28;20078;-55
2021/10/17 03:14:40;;;;;;;8.30;2.90;;;;;;;;;;10262419;28;20497;-55
2021/10/17 03:19:42;;;;;;;5.93;2.65;;;;;;;;;;10260200;28;20121;-55
2021/10/17 03:24:44;;;;;;;8.65;3.10;;;;;;;;;;10264864;28;20113;-55
2021/10/17 03:29:46;;;;;;;5.90;2.22;;;;;;;;;;10262659;28;20073;-56
2021/10/17 03:34:48;;;;;;;7.00;2.55;;;;;;;;;;10263006;28;20448;-55
2021/10/17 03:39:50;;;;;;;5.40;2.67;;;;;;;;;;10263678;28;20137;-55
2021/10/17 03:44:52;;;;;;;9.63;2.55;;;;;;;;;;10263153;28;20106;-55
2021/10/17 03:49:54;;;;;;;6.72;2.63;;;;;;;;;;10266062;28;20090;-55
2021/10/17 03:54:56;;;;;;;7.43;2.63;;;;;;;;;;10267738;28;20066;-56
2021/10/17 03:59:58;;;;;;;8.07;2.90;;;;;;;;;;10271093;28;20078;-56
2021/10/17 04:05:01;;;;;;;6.25;2.75;;;;;;;;;;10269309;28;20693;-55
2021/10/17 04:10:04;;;;;;;6.57;2.92;;;;;;;;;;10271257;28;20102;-55
2021/10/17 04:15:07;;;;;;;7.03;3.13;;;;;;;;;;10266969;28;20157;-55
2021/10/17 04:20:09;;;;;;;11.73;2.88;;;;;;;;;;10268251;28;20207;-55
2021/10/17 04:25:11;;;;;;;7.10;2.35;;;;;;;;;;10270705;28;20074;-56
2021/10/17 04:30:13;;;;;;;11.63;3.00;;;;;;;;;;10269156;28;20494;-55
2021/10/17 04:35:15;;;;;;;6.38;2.88;;;;;;;;;;10268351;28;20142;-55
2021/10/17 04:40:17;;;;;;;16.05;3.85;;;;;;;;;;10268779;28;20054;-55
2021/10/17 04:45:19;;;;;;;9.60;3.22;;;;;;;;;;10267514;28;20051;-56
2021/10/17 04:50:25;;;;;;;10.85;4.53;;;;;;;;;;10269107;28;20169;-55
2021/10/17 04:55:32;;;;;;;9.17;3.00;;;;;;;;;;10265846;28;20462;-55
2021/10/17 05:00:34;;;;;;;9.88;2.88;;;;;;;;;;10267348;28;20560;-55
2021/10/17 05:05:36;;;;;;;9.00;3.28;;;;;;;;;;10265526;28;20513;-56
2021/10/17 05:10:38;;;;;;;7.00;3.38;;;;;;;;;;10269050;28;20101;-56
2021/10/17 05:15:40;;;;;;;6.57;2.90;;;;;;;;;;10267668;28;20050;-56
2021/10/17 05:20:42;;;;;;;5.03;2.72;;;;;;;;;;10247521;28;20046;-56
2021/10/17 05:25:45;;;;;;;11.77;3.22;;;;;;;;;;10266732;28;20067;-56
2021/10/17 05:30:47;;;;;;;9.77;3.58;;;;;;;;;;10264028;28;20050;-56
2021/10/17 05:35:49;;;;;;;7.20;3.25;;;;;;;;;;10267781;28;20090;-56
2021/10/17 05:40:51;;;;;;;6.63;2.92;;;;;;;;;;10265514;28;20521;-56
2021/10/17 05:45:53;;;;;;;7.05;2.60;;;;;;;;;;10265853;28;20085;-56
2021/10/17 05:50:55;;;;;;;7.03;2.50;;;;;;;;;;10265010;28;20089;-58
2021/10/17 05:55:57;;;;;;;5.85;2.55;;;;;;;;;;10262846;28;20160;-59
2021/10/17 06:01:00;;;;;;;8.82;2.90;;;;;;;;;;10265657;28;20054;-58
2021/10/17 06:06:02;;;;;;;6.68;2.95;;;;;;;;;;10265761;28;20121;-58
2021/10/17 06:11:04;;;;;;;6.53;2.65;;;;;;;;;;10264839;28;20141;-58
2021/10/17 06:16:07;;;;;;;11.23;3.20;;;;;;;;;;10262282;28;20070;-58
2021/10/17 06:21:11;;;;;;;10.93;3.13;;;;;;;;;;10263975;28;20090;-58
2021/10/17 06:26:13;;;;;;;8.90;2.55;;;;;;;;;;10267284;28;20046;-56
2021/10/17 06:31:15;;;;;;;14.77;3.15;;;;;;;;;;10266097;28;20825;-57
2021/10/17 06:36:17;;;;;;;10.43;2.60;;;;;;;;;;10266079;28;20414;-56
2021/10/17 06:41:19;;;;;;;6.38;3.13;;;;;;;;;;10265134;28;20113;-56
2021/10/17 06:46:22;;;;;;;10.27;2.88;;;;;;;;;;10262716;28;20660;-57
2021/10/17 06:51:24;;;;;;;6.75;2.55;;;;;;;;;;10264042;28;20519;-56
2021/10/17 06:56:26;;;;;;;4.38;2.58;;;;;;;;;;10265761;28;20055;-57
2021/10/17 07:01:28;;;;;;;7.85;3.22;;;;;;;;;;10260778;28;20059;-56
2021/10/17 07:06:30;;;;;;;6.60;3.10;;;;;;;;;;10261853;28;20054;-56
2021/10/17 07:11:34;;;;;;;7.80;2.72;;;;;;;;;;10264374;28;20127;-56
2021/10/17 07:16:36;;;;;;;14.05;4.07;;;;;;;;;;10263682;28;20098;-56
2021/10/17 07:21:38;;;;;;;7.00;2.50;;;;;;;;;;10265163;28;20494;-56
2021/10/17 07:26:41;;;;;;;11.40;2.88;;;;;;;;;;10265117;28;20141;-56
2021/10/17 07:31:43;;;;;;;5.68;2.85;;;;;;;;;;10269162;28;20105;-57
2021/10/17 07:36:45;;;;;;;10.82;3.05;;;;;;;;;;10270016;28;20047;-56
2021/10/17 07:41:50;;;;;;;9.48;2.03;;;;;;;;;;10270857;28;20509;-57
2021/10/17 07:46:52;;;;;;;7.43;2.60;;;;;;;;;;10270665;28;20059;-56
2021/10/17 07:51:54;;;;;;;9.52;2.05;;;;;;;;;;10269863;28;20071;-57
2021/10/17 07:56:56;;;;;;;11.82;2.47;;;;;;;;;;10268953;28;20130;-57
2021/10/17 08:01:58;;;;;;;5.97;2.15;;;;;;;;;;10271518;28;20164;-58
2021/10/17 08:07:03;;;;;;;6.75;2.25;;;;;;;;;;10270338;28;20054;-57
2021/10/17 08:12:05;;;;;;;19.55;3.25;;;;;;;;;;10265041;28;20046;-57
2021/10/17 08:17:07;;;;;;;8.85;2.55;;;;;;;;;;10270001;28;20058;-57
2021/10/17 08:22:09;;;;;;;7.75;2.60;;;;;;;;;;10264301;28;20070;-57
2021/10/17 08:27:11;;;;;;;8.70;2.80;;;;;;;;;;10266716;28;20121;-57
2021/10/17 08:32:14;;;;;;;7.43;2.17;;;;;;;;;;10270236;28;20078;-57
2021/10/17 08:37:16;;;;;;;12.00;2.78;;;;;;;;;;10266078;28;20401;-57
2021/10/17 08:42:19;;;;;;;5.07;2.38;;;;;;;;;;10268765;28;20467;-57
2021/10/17 08:47:37;;;;;;;8.52;2.38;;;;;;;;;;10266893;28;20047;-58
2021/10/17 08:52:40;;;;;;;7.47;2.50;;;;;;;;;;10268420;28;20133;-57
2021/10/17 08:57:42;;;;;;;9.15;2.60;;;;;;;;;;10266792;28;20082;-57
2021/10/17 09:02:44;;;;;;;11.43;2.70;;;;;;;;;;10268715;28;20042;-57
2021/10/17 09:07:53;;;;;;;5.72;2.80;;;;;;;;;;10262793;28;20055;-57
2021/10/17 09:13:05;;;;;;;9.50;2.67;;;;;;;;;;10264516;28;20050;-57
2021/10/17 09:18:09;;;;;;;9.68;3.55;;;;;;;;;;10265170;28;20137;-57
2021/10/17 09:23:11;;;;;;;9.93;4.65;;;;;;;;;;10262081;28;20051;-57
2021/10/17 09:28:14;;;;;;;10.88;3.92;;;;;;;;;;10268749;28;20101;-57
2021/10/17 09:33:19;;;;;;;7.88;3.03;;;;;;;;;;10265631;28;20500;-57
2021/10/17 09:38:24;;;;;;;8.38;2.53;;;;;;;;;;10265720;28;20106;-57
2021/10/17 09:43:33;;;;;;;8.55;2.03;;;;;;;;;;10266748;28;20046;-58
2021/10/17 09:48:35;;;;;;;3.95;1.50;;;;;;;;;;10265346;28;20097;-57
2021/10/17 09:53:42;;;;;;;11.63;2.45;;;;;;;;;;10267527;28;20552;-57
2021/10/17 09:58:44;;;;;;;5.50;1.20;;;;;;;;;;10263629;28;20186;-57
2021/10/17 10:03:46;;;;;;;4.07;0.98;;;;;;;;;;10266054;28;20053;-57
2021/10/17 10:08:50;;;;;;;8.40;1.80;;;;;;;;;;10262200;28;20366;-57
2021/10/17 10:13:52;;;;;;;5.05;1.35;;;;;;;;;;10263917;28;20050;-56
2021/10/17 10:18:59;;;;;;;10.90;1.70;;;;;;;;;;10259335;28;20054;-57
2021/10/17 10:24:02;;;;;;;7.32;1.45;;;;;;;;;;10255404;28;20090;-57
2021/10/17 10:29:05;;;;;;;6.35;1.17;;;;;;;;;;10257831;28;20378;-56
2021/10/17 10:34:22;;;;;;;7.80;1.27;;;;;;;;;;10259952;28;20327;-57
2021/10/17 10:39:32;;;;;;;4.45;1.42;;;;;;;;;;10263893;28;20078;-57
2021/10/17 10:44:40;;;;;;;6.93;1.20;;;;;;;;;;10257251;28;20549;-56
2021/10/17 10:49:42;;;;;;;3.25;0.85;;;;;;;;;;10260534;28;20050;-57
2021/10/17 10:54:44;;;;;;;7.22;1.30;;;;;;;;;;10263852;28;20141;-57
2021/10/17 11:00:04;;;;;;;7.53;0.98;;;;;;;;;;10259996;28;20453;-57
2021/10/17 11:05:15;;;;;;;7.90;2.08;;;;;;;;;;10263438;28;20054;-56
2021/10/17 11:15:38;;;;;;;4.60;1.08;;;;;;;;;;10374586;27;20965;-57
2021/10/17 11:20:41;;;;;;;3.42;1.08;;;;;;;;;;10375202;28;20117;-57
2021/10/17 11:25:50;;;;;;;8.07;1.40;;;;;;;;;;10374199;28;20046;-57
2021/10/17 11:31:10;;;;;;;4.13;1.17;;;;;;;;;;10373742;28;20128;-58
2021/10/17 11:36:14;;;;;;;7.28;1.15;;;;;;;;;;10373195;28;20389;-58
2021/10/17 11:41:16;;;;;;;5.10;1.20;;;;;;;;;;10374793;28;20097;-58
2021/10/17 11:46:29;;;;;;;3.13;0.85;;;;;;;;;;10373604;28;20049;-58
2021/10/17 11:51:31;;;;;;;3.50;1.20;;;;;;;;;;10374475;28;20052;-58
2021/10/17 11:56:34;;;;;;;5.18;1.13;;;;;;;;;;10372539;28;20148;-58
2021/10/17 12:01:36;;;;;;;3.75;0.80;;;;;;;;;;10370901;28;20046;-58
2021/10/17 12:06:39;;;;;;;6.15;1.10;;;;;;;;;;10371396;28;20144;-58
2021/10/17 12:11:41;;;;;;;6.65;1.40;;;;;;;;;;10370935;28;20053;-58
2021/10/17 12:16:43;;;;;;;3.25;0.95;;;;;;;;;;10383324;28;20514;-58
2021/10/17 12:21:46;;;;;;;6.00;1.10;;;;;;;;;;10375337;28;20065;-58
2021/10/17 12:26:50;;;;;;;6.47;1.25;;;;;;;;;;10349179;28;20081;-58
2021/10/17 12:31:57;;;;;;;6.40;1.30;;;;;;;;;;10343696;28;20144;-58
2021/10/17 12:36:59;;;;;;;3.90;1.27;;;;;;;;;;10347562;28;20069;-58
2021/10/17 12:42:03;;;;;;;4.55;0.73;;;;;;;;;;10340717;28;20113;-59
2021/10/17 12:47:05;;;;;;;5.80;1.35;;;;;;;;;;10347895;28;20494;-59
2021/10/17 12:52:10;;;;;;;2.05;0.80;;;;;;;;;;10346214;28;20125;-59
2021/10/17 12:57:16;;;;;;;4.18;1.00;;;;;;;;;;10347080;28;20068;-59
2021/10/17 13:02:18;;;;;;;5.13;0.73;;;;;;;;;;10340015;28;20050;-58
2021/10/17 13:07:20;;;;;;;2.75;0.75;;;;;;;;;;10346043;28;21738;-59
2021/10/17 13:12:27;;;;;;;4.97;0.65;;;;;;;;;;10348519;28;20548;-59
2021/10/17 13:17:29;;;;;;;2.03;0.70;;;;;;;;;;10341724;28;20127;-59
2021/10/17 13:22:31;;;;;;;7.07;1.00;;;;;;;;;;10345327;28;20287;-59
2021/10/17 13:27:33;;;;;;;2.17;0.57;;;;;;;;;;10344575;28;20103;-59
2021/10/17 13:32:36;;;;;;;4.20;1.42;;;;;;;;;;10344416;28;20054;-60
2021/10/17 13:37:42;;;;;;;2.70;0.50;;;;;;;;;;10343006;28;20085;-59
2021/10/17 13:42:44;;;;;;;4.65;0.93;;;;;;;;;;10342254;28;20074;-58
2021/10/17 13:47:46;;;;;;;0.50;0.30;;;;;;;;;;10345216;28;20049;-58
2021/10/17 13:52:49;;;;;;;2.70;0.80;;;;;;;;;;10335614;28;20618;-59
2021/10/17 13:57:51;;;;;;;3.53;0.60;;;;;;;;;;10341670;28;20423;-59
2021/10/17 14:02:54;;;;;;;1.58;0.75;;;;;;;;;;10342928;28;20120;-58
2021/10/17 14:07:56;;;;;;;4.25;0.70;;;;;;;;;;10341737;28;20058;-58
2021/10/17 14:12:58;;;;;;;3.10;0.70;;;;;;;;;;10337505;28;20132;-59
2021/10/17 14:18:01;;;;;;;3.05;0.80;;;;;;;;;;10336623;28;20121;-61
2021/10/17 14:34:29;;;;;;;3.30;0.60;;;24.50;57.80;;;;;;10351694;27;20362;-67
2021/10/17 14:39:34;;;;;;;3.20;0.80;;;16.20;72.90;;;;;;10383067;28;20060;-67
2021/10/17 14:44:36;;;;;;;1.13;0.50;;;14.60;76.20;;;;;;10365654;28;20050;-67
2021/10/17 14:49:38;;;;;;;3.83;1.27;;;14.30;79.40;;;;;;10359645;28;20050;-66
2021/10/17 14:54:39;;;;;;;3.53;1.05;;;14.20;81.40;;;;;;10357068;28;20159;-65
2021/10/17 14:59:44;;;;;;;3.47;0.88;;;14.00;81.60;;;;;;10369089;28;20081;-65
2021/10/17 15:04:47;;;;;;;2.83;0.85;;;13.90;82.80;;;;;;10367183;28;20054;-65
2021/10/17 15:09:49;;;;;;;8.82;0.90;;;13.80;85.70;;;;;;10362308;28;20053;-68
2021/10/17 15:14:50;;;;;;;2.33;0.70;;;14.90;99.90;;;;;;10370446;28;20357;-72
2021/10/17 15:19:52;;;;;;;1.15;0.40;;;58.50;26.70;;;;;;10367447;28;20536;-63
2021/10/17 15:24:54;;;;;;;2.63;0.40;;;45.50;26.60;;;;;;10359658;28;20496;-63
2021/10/17 15:29:56;;;;;;;4.00;0.68;;;35.80;31.20;;;;;;10359657;28;20148;-62
2021/10/17 15:34:58;;;;;;;1.20;0.60;;;29.10;38.60;;;;;;10367060;28;20580;-62
2021/10/17 15:40:01;;;;;;;2.50;0.68;;;24.30;46.10;;;;;;10355338;28;20117;-61
2021/10/17 15:45:05;;;;;;;1.10;0.50;;;21.20;52.40;;;;;;10344480;28;20057;-62
2021/10/17 15:50:07;;;;;;;3.35;0.70;;;19.10;59.50;;;;;;10335970;28;20440;-62
2021/10/17 15:55:09;;;;;;;4.38;0.70;;;17.20;63.10;;;;;;10335333;28;20078;-64
2021/10/17 16:00:11;;;;;;;4.13;0.80;;;16.10;68.90;;;;;;10284050;28;20082;-61
2021/10/17 16:05:13;;;;;;;6.78;0.80;;;15.30;72.20;;;;;;10335348;28;20120;-64
2021/10/17 16:10:15;;;;;;;6.13;0.70;;;14.80;75.30;;;;;;10332151;28;20058;-65
2021/10/17 16:15:17;;;;;;;2.10;1.08;;;14.30;78.40;;;;;;10328898;28;20165;-64
2021/10/17 16:20:19;;;;;;;4.75;1.10;;;14.00;81.50;;;;;;10339924;28;20915;-63
2021/10/17 16:25:21;;;;;;;4.60;1.40;;;13.70;83.70;;;;;;10331568;28;20451;-63
2021/10/17 16:30:23;;;;;;;6.45;2.30;;;13.40;86.60;;;;;;10325545;28;20057;-63
2021/10/17 16:35:25;;;;;;;7.30;2.88;;;13.10;88.50;;;;;;10327207;28;20053;-63
2021/10/17 16:40:26;;;;;;;6.15;2.45;;;12.90;91.60;;;;;;10330180;28;20101;-63
2021/10/17 16:45:31;;;;;;;5.97;1.23;;;12.70;92.40;;;;;;10335062;28;20054;-59
2021/10/17 16:50:33;;;;;;;2.55;1.08;;;12.50;94.20;;;;;;10329057;28;20138;-58
2021/10/17 16:55:36;;;;;;;2.55;1.00;;;12.30;96.60;;;;;;10330227;28;20750;-58
2021/10/17 17:00:38;;;;;;;2.30;1.00;;;12.10;99.70;;;;;;10334694;28;20081;-59
2021/10/17 17:05:42;;;;;;;7.18;1.40;;;11.90;99.90;;;;;;10333923;28;20065;-58
2021/10/17 17:10:44;;;;;;;6.25;1.08;;;11.80;99.90;;;;;;10330403;28;20813;-58
2021/10/17 17:15:46;;;;;;;3.13;1.48;;;11.60;99.90;;;;;;10335411;28;20112;-57
2021/10/17 17:20:50;;;;;;;7.75;2.03;;;11.50;99.90;;;;;;10332915;28;20077;-58
2021/10/17 17:25:51;;;;;;;2.63;1.35;;;11.40;99.90;;;;;;10330269;28;20081;-58
2021/10/17 17:30:53;;;;;;;6.82;1.63;;;11.20;99.90;;;;;;10336778;28;20751;-59
2021/10/17 17:35:55;;;;;;;3.60;1.90;;;11.10;99.90;;;;;;10335183;28;20050;-58
2021/10/17 17:40:56;;;;;;;3.90;1.30;;;11.10;99.90;;;;;;10330187;28;20526;-58
2021/10/17 17:45:58;;;;;;;5.97;1.17;;;11.00;99.90;;;;;;10327406;28;20045;-59
2021/10/17 17:51:00;;;;;;;4.15;1.60;;;11.00;99.90;;;;;;10329489;28;20492;-59
2021/10/17 17:56:01;;;;;;;4.43;1.88;;;10.90;99.90;;;;;;10326229;28;20049;-58
2021/10/17 18:01:03;;;;;;;5.03;1.50;;;10.80;99.90;;;;;;10324478;28;20054;-58
2021/10/17 18:06:05;;;;;;;3.53;1.30;;;10.70;99.90;;;;;;10331327;28;20050;-59
2021/10/17 18:11:07;;;;;;;3.20;1.23;;;10.70;99.90;;;;;;10327086;28;20046;-58
2021/10/17 18:16:08;;;;;;;6.70;1.90;;;10.70;99.90;;;;;;10331173;28;20077;-58
2021/10/17 18:21:10;;;;;;;6.78;1.75;;;10.60;99.90;;;;;;10323940;28;20135;-59
2021/10/17 18:26:12;;;;;;;6.35;1.50;;;10.50;99.90;;;;;;10329005;28;20080;-59
2021/10/17 18:31:13;;;;;;;4.07;1.88;;;10.50;99.90;;;;;;10327842;28;20169;-59
2021/10/17 18:36:16;;;;;;;3.55;1.55;;;10.40;99.90;;;;;;10329745;28;20046;-59
2021/10/17 18:41:17;;;;;;;4.28;1.42;;;10.40;99.90;;;;;;10328217;28;20128;-59
2021/10/17 18:46:19;;;;;;;4.35;1.52;;;10.40;99.90;;;;;;10346265;28;20104;-58
2021/10/17 18:51:21;;;;;;;2.67;1.50;;;10.40;99.90;;;;;;10330276;28;20058;-59
2021/10/17 18:56:23;;;;;;;6.90;1.38;;;10.40;99.90;;;;;;10328613;28;20038;-59
2021/10/17 19:01:25;;;;;;;5.93;1.90;;;10.40;99.90;;;;;;10323028;28;20082;-59
2021/10/17 19:06:28;;;;;;;3.65;2.30;;;10.30;99.90;;;;;;10325297;28;20065;-58
2021/10/17 19:11:30;;;;;;;5.45;2.08;;;10.30;99.90;;;;;;10327266;28;20708;-59
2021/10/17 19:16:32;;;;;;;3.72;1.80;;;10.20;99.90;;;;;;10324230;28;20042;-59
2021/10/17 19:21:34;;;;;;;4.78;1.88;;;10.20;99.90;;;;;;10334162;28;20148;-59
2021/10/17 19:26:35;;;;;;;7.93;2.00;;;10.20;99.90;;;;;;10331971;28;20054;-58
2021/10/17 19:31:37;;;;;;;11.93;2.72;;;10.10;99.90;;;;;;10324466;28;20069;-59
2021/10/17 19:36:40;;;;;;;3.28;1.40;;;10.10;99.90;;;;;;10331926;28;20055;-62
2021/10/17 19:41:41;;;;;;;3.25;1.38;;;10.10;99.90;;;;;;10339505;28;20132;-59
2021/10/17 19:46:43;;;;;;;6.47;1.88;;;10.00;99.90;;;;;;10335427;28;20054;-59
2021/10/17 19:51:45;;;;;;;2.50;1.40;;;10.00;99.90;;;;;;10339306;28;20137;-59
2021/10/17 19:56:47;;;;;;;3.15;1.02;;;9.90;99.90;;;;;;10338512;28;20516;-59
2021/10/17 20:01:49;;;;;;;4.47;0.90;;;9.80;99.90;;;;;;10347418;28;20042;-59
2021/10/17 20:06:51;;;;;;;7.50;1.15;;;9.70;99.90;;;;;;10332326;28;20062;-60
2021/10/17 20:11:52;;;;;;;2.67;1.45;;;9.70;99.90;;;;;;10331718;28;20046;-60
2021/10/17 20:16:54;;;;;;;3.10;1.00;;;9.60;99.90;;;;;;10333530;28;20058;-60
2021/10/17 20:22:05;;;;;;;4.18;1.20;;;9.50;99.90;;;;;;10336088;28;20045;-61
2021/10/17 20:27:09;;;;;;;3.50;1.23;;;9.40;99.90;;;;;;10340048;28;20108;-59
2021/10/17 20:32:11;;;;;;;4.78;1.00;;;9.40;99.90;;;;;;10338700;28;20073;-60
2021/10/17 20:37:20;;;;;;;4.07;1.30;;;9.40;99.90;;;;;;10344561;28;20042;-60
2021/10/17 20:42:22;;;;;;;5.40;1.08;;;9.30;99.90;;;;;;10334789;28;20076;-60
2021/10/17 20:47:24;;;;;;;2.20;1.40;;;9.30;99.90;;;;;;10332925;28;20049;-60
2021/10/17 20:52:26;;;;;;;5.03;1.20;;;9.30;99.90;;;;;;10331847;28;20074;-60
2021/10/17 20:57:28;;;;;;;4.63;1.20;;;9.20;99.90;;;;;;10337025;28;20057;-60
2021/10/17 21:02:29;;;;;;;3.25;1.50;;;9.20;99.90;;;;;;10333070;28;20078;-60
2021/10/17 21:07:31;;;;;;;3.50;1.38;;;9.10;99.90;;;;;;10328506;28;20105;-60
2021/10/17 21:12:33;;;;;;;4.13;1.20;;;9.00;99.90;;;;;;10332120;28;20046;-61
2021/10/17 21:17:35;;;;;;;3.90;1.35;;;9.00;99.90;;;;;;10326598;28;20054;-59
2021/10/17 21:22:37;;;;;;;5.63;1.30;;;8.90;99.90;;;;;;10334549;28;20151;-59
2021/10/17 21:27:40;;;;;;;2.28;1.15;;;8.80;99.90;;;;;;10331816;28;20109;-59
2021/10/17 21:32:41;;;;;;;3.08;1.00;;;8.80;99.90;;;;;;10323353;28;20090;-59
2021/10/17 21:37:43;;;;;;;2.60;0.98;;;8.80;99.90;;;;;;10333411;28;20099;-59
2021/10/17 21:42:45;;;;;;;3.05;1.38;;;8.70;99.90;;;;;;10323436;28;20077;-59
2021/10/17 21:47:46;;;;;;;3.80;1.45;;;8.60;99.90;;;;;;10333050;28;20049;-59
2021/10/17 21:52:48;;;;;;;3.38;1.25;;;8.50;99.90;;;;;;10337593;28;20120;-61
2021/10/17 22:03:11;;;;;;;4.82;1.48;;;8.40;99.90;;;;;;10333179;28;20132;-92
2021/10/17 22:08:13;;;;;;;4.75;1.40;;;8.30;99.90;;;;;;10328086;28;20053;-92
2021/10/17 22:13:14;;;;;;;4.30;1.67;;;8.20;99.90;;;;;;10326164;28;20045;-92
2021/10/17 22:18:16;;;;;;;4.70;1.48;;;8.20;99.90;;;;;;10339651;28;20081;-92
2021/10/17 22:23:19;;;;;;;8.70;1.70;;;8.20;99.90;;;;;;10338086;28;20077;-92
2021/10/17 22:28:21;;;;;;;3.05;1.55;;;8.10;99.90;;;;;;10310374;28;20488;-92
2021/10/17 22:33:27;;;;;;;7.63;1.92;;;8.10;99.90;;;;;;10352063;28;20061;-92
2021/10/17 22:38:38;;;;;;;3.45;1.40;;;8.00;99.90;;;;;;10340329;28;20045;-92
2021/10/17 22:43:56;;;;;;;2.83;1.30;;;8.00;99.90;;;;;;10349139;28;20595;-92
2021/10/17 22:48:58;;;;;;;11.48;2.20;;;7.90;99.90;;;;;;10333600;28;20560;-92
2021/10/17 22:54:02;;;;;;;3.78;1.33;;;7.80;99.90;;;;;;10347539;28;20467;-92
2021/10/17 22:59:04;;;;;;;5.88;2.83;;;7.60;99.90;;;;;;10315431;28;20072;-93
2021/10/17 23:04:07;;;;;;;3.80;1.35;;;7.60;99.90;;;;;;10326121;28;20049;-92
2021/10/17 23:09:09;;;;;;;4.30;1.60;;;7.40;99.90;;;;;;10316694;28;20094;-92
2021/10/17 23:14:11;;;;;;;4.55;1.80;;;7.40;99.90;;;;;;10351048;28;20065;-92
2021/10/17 23:19:13;;;;;;;5.13;1.55;;;7.40;99.90;;;;;;10337863;28;20064;-91
2021/10/17 23:24:15;;;;;;;6.30;1.95;;;7.30;99.90;;;;;;10321423;28;20116;-92
2021/10/17 23:29:18;;;;;;;4.75;1.30;;;7.20;99.90;;;;;;10325401;28;20052;-92
2021/10/17 23:34:20;;;;;;;1.80;1.17;;;7.20;99.90;;;;;;10314313;28;20062;-92
2021/10/17 23:39:22;;;;;;;4.10;1.20;;;7.20;99.90;;;;;;10362863;28;20046;-92
2021/10/17 23:44:24;;;;;;;3.42;1.35;;;7.10;99.90;;;;;;10319955;28;20046;-91
2021/10/17 23:49:27;;;;;;;3.38;1.20;;;7.10;99.90;;;;;;10341221;28;20132;-91
2021/10/17 23:54:30;;;;;;;3.17;1.38;;;7.00;99.90;;;;;;10331568;28;20057;-92
2021/10/17 23:59:33;;;;;;;7.20;1.20;;;6.90;99.90;;;;;;10270598;28;20057;-93
